Time;durP1;ratioP1;P1;durP2;ratioP2;P2;SDS_P1;SDS_P2;PMS_P1;PMS_P2;Temp;Humidity;BMP_temperature;BMP_pressure;BME280_temperature;BME280_humidity;BME280_pressure;Samples;Min_cycle;Max_cycle;Signal;HPM_P1;HPM_P2
2021/10/03 00:00:08;;;;;;;3.95;3.10;;;;;;;;;;143732;583;47019;-84
2021/10/03 00:02:42;;;;;;;10.90;3.28;;;;;;;;;;143734;701;46010;-83
2021/10/03 00:05:13;;;;;;;6.82;3.10;;;;;;;;;;143730;691;47020;-84
2021/10/03 00:07:42;;;;;;;4.55;2.65;;;;;;;;;;143733;637;46040;-85
2021/10/03 00:10:10;;;;;;;7.50;3.12;;;;;;;;;;143733;695;47018;-84
2021/10/03 00:12:38;;;;;;;6.25;3.72;;;;;;;;;;143737;572;46021;-84
2021/10/03 00:15:10;;;;;;;5.82;4.65;;;;;;;;;;143734;567;47021;-83
2021/10/03 00:17:38;;;;;;;15.38;3.60;;;;;;;;;;143733;648;46010;-84
2021/10/03 00:20:06;;;;;;;5.78;3.03;;;;;;;;;;143735;583;46018;-86
2021/10/03 00:22:33;;;;;;;8.20;3.78;;;;;;;;;;143735;566;46020;-85
2021/10/03 00:25:01;;;;;;;6.55;2.72;;;;;;;;;;143731;613;47020;-85
2021/10/03 00:27:28;;;;;;;7.03;3.08;;;;;;;;;;143731;593;46035;-85
2021/10/03 00:29:55;;;;;;;6.65;2.92;;;;;;;;;;143735;632;47018;-86
2021/10/03 00:32:22;;;;;;;5.07;3.42;;;;;;;;;;143735;710;46022;-84
2021/10/03 00:34:49;;;;;;;8.80;5.47;;;;;;;;;;143731;581;47012;-85
2021/10/03 00:37:16;;;;;;;8.02;5.28;;;;;;;;;;143733;724;46010;-85
2021/10/03 00:39:42;;;;;;;10.45;5.97;;;;;;;;;;143736;647;46018;-85
2021/10/03 00:42:12;;;;;;;16.83;6.15;;;;;;;;;;143734;614;46011;-86
2021/10/03 00:44:39;;;;;;;11.82;5.30;;;;;;;;;;143732;590;46021;-84
2021/10/03 00:47:06;;;;;;;17.45;7.12;;;;;;;;;;143734;589;46022;-85
2021/10/03 00:49:36;;;;;;;9.60;6.25;;;;;;;;;;143736;624;46018;-84
2021/10/03 00:52:08;;;;;;;12.25;6.07;;;;;;;;;;143736;581;46010;-84
2021/10/03 00:54:37;;;;;;;14.48;6.00;;;;;;;;;;143733;588;47020;-84
2021/10/03 00:57:04;;;;;;;12.45;5.82;;;;;;;;;;143734;674;46050;-86
2021/10/03 00:59:34;;;;;;;10.13;6.05;;;;;;;;;;143734;570;47018;-85
2021/10/03 01:02:02;;;;;;;10.75;5.85;;;;;;;;;;143736;603;46010;-86
2021/10/03 01:04:29;;;;;;;8.38;4.40;;;;;;;;;;143732;600;47020;-85
2021/10/03 01:06:56;;;;;;;7.25;4.07;;;;;;;;;;143734;618;46010;-86
2021/10/03 01:09:23;;;;;;;8.30;3.85;;;;;;;;;;143734;744;46018;-85
2021/10/03 01:11:50;;;;;;;6.15;4.22;;;;;;;;;;143737;592;46011;-84
2021/10/03 01:14:18;;;;;;;9.93;3.92;;;;;;;;;;143736;739;47021;-84
2021/10/03 01:16:45;;;;;;;8.43;4.40;;;;;;;;;;143735;582;46010;-84
2021/10/03 01:19:13;;;;;;;7.68;4.00;;;;;;;;;;143736;630;46018;-85
2021/10/03 01:21:42;;;;;;;8.50;3.60;;;;;;;;;;143737;619;46020;-85
2021/10/03 01:24:10;;;;;;;8.45;4.50;;;;;;;;;;143733;584;47020;-84
2021/10/03 01:26:36;;;;;;;12.48;7.35;;;;;;;;;;143732;693;46010;-85
2021/10/03 01:29:03;;;;;;;13.25;9.07;;;;;;;;;;143735;624;47019;-83
2021/10/03 01:31:32;;;;;;;12.63;9.50;;;;;;;;;;143735;617;46010;-84
2021/10/03 01:34:01;;;;;;;10.52;8.20;;;;;;;;;;143736;566;46018;-84
2021/10/03 01:36:28;;;;;;;10.25;8.48;;;;;;;;;;143735;669;46010;-85
2021/10/03 01:38:56;;;;;;;11.60;7.40;;;;;;;;;;143736;577;46018;-84
2021/10/03 01:41:25;;;;;;;8.73;6.05;;;;;;;;;;143736;592;46011;-85
2021/10/03 01:43:53;;;;;;;12.82;6.18;;;;;;;;;;143732;599;47021;-83
2021/10/03 01:46:20;;;;;;;7.07;5.85;;;;;;;;;;143734;651;46010;-84
2021/10/03 01:48:48;;;;;;;18.27;6.15;;;;;;;;;;143736;629;46018;-84
2021/10/03 01:51:17;;;;;;;8.05;6.05;;;;;;;;;;143737;696;46010;-85
2021/10/03 01:53:59;;;;;;;12.68;5.07;;;;;;;;;;143734;566;46018;-82
2021/10/03 01:56:28;;;;;;;11.90;4.82;;;;;;;;;;143734;569;46918;-83
2021/10/03 01:59:01;;;;;;;9.95;3.80;;;;;;;;;;143733;686;47018;-86
2021/10/03 02:01:36;;;;;;;6.17;4.13;;;;;;;;;;143738;590;46010;-83
2021/10/03 02:04:22;;;;;;;11.93;5.53;;;;;;;;;;143735;604;46020;-83
2021/10/03 02:06:52;;;;;;;5.32;3.83;;;;;;;;;;143735;571;46010;-83
2021/10/03 02:09:20;;;;;;;5.25;3.10;;;;;;;;;;143735;603;46018;-83
2021/10/03 02:11:49;;;;;;;4.18;3.33;;;;;;;;;;143736;566;46010;-82
2021/10/03 02:14:18;;;;;;;11.10;4.30;;;;;;;;;;143737;642;46021;-84
2021/10/03 02:16:45;;;;;;;5.93;3.95;;;;;;;;;;143732;661;47022;-82
2021/10/03 02:19:12;;;;;;;6.85;4.78;;;;;;;;;;143736;587;46018;-83
2021/10/03 02:21:41;;;;;;;7.75;4.47;;;;;;;;;;143737;560;46010;-84
2021/10/03 02:24:11;;;;;;;5.43;3.78;;;;;;;;;;143736;697;46018;-84
2021/10/03 02:26:38;;;;;;;9.82;4.62;;;;;;;;;;143734;565;46010;-81
2021/10/03 02:29:05;;;;;;;6.70;4.28;;;;;;;;;;143734;566;47013;-80
2021/10/03 02:31:32;;;;;;;9.57;4.03;;;;;;;;;;143739;663;45033;-80
2021/10/03 02:33:59;;;;;;;7.35;5.07;;;;;;;;;;143734;610;46020;-84
2021/10/03 02:36:27;;;;;;;6.93;5.07;;;;;;;;;;143737;636;46010;-80
2021/10/03 02:38:55;;;;;;;8.93;5.15;;;;;;;;;;143740;576;45018;-81
2021/10/03 02:41:23;;;;;;;18.65;7.32;;;;;;;;;;143739;642;46011;-84
2021/10/03 02:43:53;;;;;;;10.95;5.90;;;;;;;;;;143733;569;47018;-85
2021/10/03 02:46:21;;;;;;;10.95;6.35;;;;;;;;;;143734;578;46012;-84
2021/10/03 02:48:50;;;;;;;11.00;6.12;;;;;;;;;;143735;640;46019;-84
2021/10/03 02:51:33;;;;;;;21.70;5.80;;;;;;;;;;143737;573;46010;-85
2021/10/03 02:53:59;;;;;;;11.25;6.50;;;;;;;;;;143735;665;47020;-84
2021/10/03 02:56:29;;;;;;;11.82;7.10;;;;;;;;;;143735;567;46023;-83
2021/10/03 02:58:56;;;;;;;9.55;5.47;;;;;;;;;;143735;668;46019;-84
2021/10/03 03:01:23;;;;;;;11.88;6.82;;;;;;;;;;143735;619;46020;-85
2021/10/03 03:03:51;;;;;;;20.60;8.75;;;;;;;;;;143732;566;47020;-84
2021/10/03 03:06:19;;;;;;;15.82;9.45;;;;;;;;;;143733;591;46918;-83
2021/10/03 03:08:46;;;;;;;12.52;8.13;;;;;;;;;;143735;579;46018;-84
2021/10/03 03:11:40;;;;;;;17.73;9.77;;;;;;;;;;143738;587;46023;-85
2021/10/03 03:14:09;;;;;;;16.45;7.95;;;;;;;;;;143734;564;47021;-84
2021/10/03 03:16:46;;;;;;;25.50;9.43;;;;;;;;;;143734;564;46022;-84
2021/10/03 03:19:13;;;;;;;19.67;9.73;;;;;;;;;;143733;728;47018;-84
2021/10/03 03:21:41;;;;;;;16.65;9.05;;;;;;;;;;143735;570;47020;-84
2021/10/03 03:24:09;;;;;;;18.90;8.88;;;;;;;;;;143734;589;46020;-86
2021/10/03 03:26:36;;;;;;;19.55;8.88;;;;;;;;;;143734;732;46023;-83
2021/10/03 03:29:03;;;;;;;12.95;8.23;;;;;;;;;;143736;591;46041;-84
2021/10/03 03:31:39;;;;;;;19.92;8.77;;;;;;;;;;143736;566;46010;-85
2021/10/03 03:34:15;;;;;;;16.30;9.23;;;;;;;;;;143735;620;47019;-83
2021/10/03 03:36:52;;;;;;;18.52;8.95;;;;;;;;;;143735;679;46010;-84
2021/10/03 03:39:19;;;;;;;20.37;9.52;;;;;;;;;;143735;590;47018;-84
2021/10/03 03:41:53;;;;;;;19.05;9.18;;;;;;;;;;143736;564;46010;-84
2021/10/03 03:44:20;;;;;;;16.17;9.00;;;;;;;;;;143734;657;47018;-85
2021/10/03 03:46:52;;;;;;;12.13;7.57;;;;;;;;;;143733;679;46010;-84
2021/10/03 03:49:21;;;;;;;14.00;7.57;;;;;;;;;;143735;733;46018;-83
2021/10/03 03:51:49;;;;;;;12.32;8.32;;;;;;;;;;143736;672;46010;-84
2021/10/03 03:54:17;;;;;;;10.75;7.72;;;;;;;;;;143730;570;47020;-84
2021/10/03 03:56:44;;;;;;;12.43;7.55;;;;;;;;;;143733;627;46011;-84
2021/10/03 03:59:11;;;;;;;12.02;7.43;;;;;;;;;;143736;629;46018;-83
2021/10/03 04:01:37;;;;;;;12.05;8.02;;;;;;;;;;143737;563;46010;-84
2021/10/03 04:04:05;;;;;;;13.65;7.28;;;;;;;;;;143732;588;47020;-85
2021/10/03 04:06:32;;;;;;;10.23;7.50;;;;;;;;;;143736;591;46010;-84
2021/10/03 04:08:59;;;;;;;18.85;8.02;;;;;;;;;;143734;617;47018;-83
2021/10/03 04:11:25;;;;;;;15.20;7.50;;;;;;;;;;143738;631;46010;-85
2021/10/03 04:13:57;;;;;;;10.75;7.22;;;;;;;;;;143733;569;47018;-85
2021/10/03 04:16:24;;;;;;;9.35;7.62;;;;;;;;;;143735;571;46010;-84
2021/10/03 04:18:54;;;;;;;11.50;7.47;;;;;;;;;;143735;695;47019;-84
2021/10/03 04:21:21;;;;;;;15.57;8.25;;;;;;;;;;143738;689;46010;-84
2021/10/03 04:23:52;;;;;;;9.02;7.10;;;;;;;;;;143734;567;47020;-84
2021/10/03 04:26:19;;;;;;;14.60;7.78;;;;;;;;;;143734;584;46010;-84
2021/10/03 04:28:46;;;;;;;13.80;8.68;;;;;;;;;;143734;583;47018;-84
2021/10/03 04:31:13;;;;;;;14.27;8.13;;;;;;;;;;143737;649;46010;-84
2021/10/03 04:33:42;;;;;;;15.98;8.93;;;;;;;;;;143734;616;47029;-84
2021/10/03 04:36:12;;;;;;;16.80;9.02;;;;;;;;;;143735;631;46009;-84
2021/10/03 04:38:40;;;;;;;12.80;9.55;;;;;;;;;;143736;685;46018;-84
2021/10/03 04:41:07;;;;;;;15.02;7.45;;;;;;;;;;143735;608;47011;-84
2021/10/03 04:43:44;;;;;;;11.82;7.60;;;;;;;;;;143734;572;46030;-85
2021/10/03 04:46:13;;;;;;;21.45;8.27;;;;;;;;;;143733;608;46010;-84
2021/10/03 04:48:41;;;;;;;20.77;9.15;;;;;;;;;;143737;622;46018;-84
2021/10/03 04:51:09;;;;;;;17.62;9.40;;;;;;;;;;143735;606;46023;-84
2021/10/03 04:53:36;;;;;;;17.20;8.98;;;;;;;;;;143736;583;46020;-84
2021/10/03 04:56:05;;;;;;;21.48;9.60;;;;;;;;;;143734;585;46022;-85
2021/10/03 04:58:33;;;;;;;14.15;10.15;;;;;;;;;;143736;591;46018;-85
2021/10/03 05:01:00;;;;;;;15.55;8.70;;;;;;;;;;143737;596;46010;-84
2021/10/03 05:03:27;;;;;;;15.43;9.30;;;;;;;;;;143734;591;47018;-85
2021/10/03 05:05:54;;;;;;;21.92;9.57;;;;;;;;;;143732;621;46012;-85
2021/10/03 05:08:30;;;;;;;17.15;10.25;;;;;;;;;;143735;700;47018;-85
2021/10/03 05:10:57;;;;;;;14.63;9.15;;;;;;;;;;143736;564;46012;-84
2021/10/03 05:13:24;;;;;;;17.20;9.43;;;;;;;;;;143734;586;46030;-85
2021/10/03 05:15:52;;;;;;;10.25;8.15;;;;;;;;;;143734;577;46918;-84
2021/10/03 05:18:19;;;;;;;18.58;9.30;;;;;;;;;;143736;583;46042;-84
2021/10/03 05:20:47;;;;;;;15.85;8.40;;;;;;;;;;143736;564;46020;-84
2021/10/03 05:23:14;;;;;;;10.65;8.32;;;;;;;;;;143734;578;47018;-84
2021/10/03 05:25:41;;;;;;;12.77;8.75;;;;;;;;;;143734;571;46010;-84
2021/10/03 05:28:09;;;;;;;11.15;8.68;;;;;;;;;;143734;604;47019;-85
2021/10/03 05:30:38;;;;;;;11.93;8.68;;;;;;;;;;143737;649;46010;-85
2021/10/03 05:33:05;;;;;;;13.98;9.23;;;;;;;;;;143734;674;47020;-84
2021/10/03 05:35:34;;;;;;;14.77;8.63;;;;;;;;;;143733;590;46010;-84
2021/10/03 05:38:02;;;;;;;20.08;8.57;;;;;;;;;;143737;591;46035;-85
2021/10/03 05:40:30;;;;;;;15.77;9.23;;;;;;;;;;143738;598;46010;-83
2021/10/03 05:43:00;;;;;;;14.48;8.52;;;;;;;;;;143732;642;47021;-84
2021/10/03 05:45:27;;;;;;;18.05;8.70;;;;;;;;;;143733;608;46010;-85
2021/10/03 05:47:56;;;;;;;14.18;8.85;;;;;;;;;;143733;578;47018;-83
2021/10/03 05:50:23;;;;;;;13.38;8.95;;;;;;;;;;143735;591;46010;-84
2021/10/03 05:52:50;;;;;;;15.20;8.43;;;;;;;;;;143732;703;47018;-84
2021/10/03 05:55:17;;;;;;;16.45;8.25;;;;;;;;;;143731;604;47023;-83
2021/10/03 05:57:45;;;;;;;19.60;9.07;;;;;;;;;;143734;609;46018;-84
2021/10/03 06:00:13;;;;;;;13.43;8.43;;;;;;;;;;143735;621;46022;-84
2021/10/03 06:02:41;;;;;;;19.20;8.75;;;;;;;;;;143731;573;47020;-84
2021/10/03 06:05:13;;;;;;;12.70;8.63;;;;;;;;;;143734;625;46010;-83
2021/10/03 06:07:40;;;;;;;24.55;9.57;;;;;;;;;;143732;591;47018;-84
2021/10/03 06:10:09;;;;;;;19.33;9.07;;;;;;;;;;143735;572;46011;-83
2021/10/03 06:12:36;;;;;;;14.10;8.95;;;;;;;;;;143731;585;47021;-84
2021/10/03 06:15:06;;;;;;;14.60;8.40;;;;;;;;;;143731;569;46918;-84
2021/10/03 06:17:33;;;;;;;16.30;9.23;;;;;;;;;;143731;593;47018;-83
2021/10/03 06:20:00;;;;;;;18.60;9.55;;;;;;;;;;143735;566;46010;-84
2021/10/03 06:22:26;;;;;;;22.02;10.52;;;;;;;;;;143731;569;47020;-83
2021/10/03 06:24:54;;;;;;;15.55;10.65;;;;;;;;;;143732;571;46010;-83
2021/10/03 06:27:21;;;;;;;23.30;11.85;;;;;;;;;;143731;569;47019;-84
2021/10/03 06:29:52;;;;;;;19.42;9.63;;;;;;;;;;143734;638;46010;-83
2021/10/03 06:32:19;;;;;;;16.27;10.60;;;;;;;;;;143731;572;47020;-84
2021/10/03 06:34:49;;;;;;;12.30;10.07;;;;;;;;;;143731;563;46010;-83
2021/10/03 06:37:17;;;;;;;21.70;9.60;;;;;;;;;;143733;615;47018;-84
2021/10/03 06:39:44;;;;;;;18.50;11.12;;;;;;;;;;143734;566;47022;-82
2021/10/03 06:42:14;;;;;;;18.80;10.30;;;;;;;;;;143730;582;47021;-84
2021/10/03 06:44:41;;;;;;;14.32;10.50;;;;;;;;;;143732;694;46010;-84
2021/10/03 06:47:10;;;;;;;14.95;10.93;;;;;;;;;;143734;735;46019;-85
2021/10/03 06:49:37;;;;;;;14.25;10.82;;;;;;;;;;143735;597;46010;-83
2021/10/03 06:52:05;;;;;;;25.20;10.70;;;;;;;;;;143734;628;46039;-84
2021/10/03 06:54:33;;;;;;;18.40;10.45;;;;;;;;;;143733;599;46918;-83
2021/10/03 06:57:00;;;;;;;22.48;10.00;;;;;;;;;;143734;608;46019;-83
2021/10/03 06:59:35;;;;;;;21.95;9.35;;;;;;;;;;143733;569;46012;-85
2021/10/03 07:02:07;;;;;;;19.33;10.82;;;;;;;;;;143730;592;47020;-84
2021/10/03 07:04:37;;;;;;;13.07;9.63;;;;;;;;;;143732;598;46918;-85
2021/10/03 07:07:07;;;;;;;15.10;10.90;;;;;;;;;;143735;566;46020;-83
2021/10/03 07:09:33;;;;;;;24.00;12.23;;;;;;;;;;143735;698;46019;-84
2021/10/03 07:12:00;;;;;;;17.05;11.12;;;;;;;;;;143730;564;47021;-84
2021/10/03 07:14:26;;;;;;;21.62;10.57;;;;;;;;;;143732;570;46010;-84
2021/10/03 07:16:53;;;;;;;16.60;12.07;;;;;;;;;;143733;680;47018;-83
2021/10/03 07:19:20;;;;;;;17.85;11.32;;;;;;;;;;143735;569;46011;-85
2021/10/03 07:21:48;;;;;;;17.10;11.23;;;;;;;;;;143737;566;45018;-85
2021/10/03 07:24:15;;;;;;;18.23;10.38;;;;;;;;;;143733;565;45918;-83
2021/10/03 07:26:42;;;;;;;23.17;11.25;;;;;;;;;;143729;569;47019;-85
2021/10/03 07:29:11;;;;;;;23.02;11.80;;;;;;;;;;143735;569;46010;-84
2021/10/03 07:31:37;;;;;;;21.65;11.48;;;;;;;;;;143731;564;46012;-83
2021/10/03 07:34:05;;;;;;;20.90;10.98;;;;;;;;;;143731;682;46010;-85
2021/10/03 07:36:32;;;;;;;18.37;11.02;;;;;;;;;;143733;672;46018;-86
2021/10/03 07:39:00;;;;;;;19.42;9.90;;;;;;;;;;143735;651;46010;-87
2021/10/03 07:41:27;;;;;;;16.83;10.43;;;;;;;;;;143732;564;47021;-83
2021/10/03 07:43:55;;;;;;;17.50;9.90;;;;;;;;;;143732;600;46010;-85
2021/10/03 07:46:21;;;;;;;14.02;9.52;;;;;;;;;;143733;651;47018;-84
2021/10/03 07:48:49;;;;;;;18.37;11.43;;;;;;;;;;143738;609;46010;-84
2021/10/03 07:51:16;;;;;;;17.87;12.98;;;;;;;;;;143731;573;47020;-84
2021/10/03 07:53:42;;;;;;;22.17;12.52;;;;;;;;;;143734;599;46022;-86
2021/10/03 07:56:10;;;;;;;18.85;11.52;;;;;;;;;;143732;587;46019;-84
2021/10/03 07:58:39;;;;;;;17.40;10.75;;;;;;;;;;143732;571;47022;-91
2021/10/03 08:01:05;;;;;;;26.90;11.18;;;;;;;;;;143734;611;46012;-83
2021/10/03 08:03:32;;;;;;;30.83;10.85;;;;;;;;;;143733;566;46010;-84
2021/10/03 08:05:58;;;;;;;17.40;10.68;;;;;;;;;;143733;566;47018;-84
2021/10/03 08:08:25;;;;;;;26.52;11.30;;;;;;;;;;143737;734;46010;-83
2021/10/03 08:10:52;;;;;;;17.48;10.43;;;;;;;;;;143729;732;47019;-85
2021/10/03 08:13:20;;;;;;;13.18;9.48;;;;;;;;;;143732;603;46918;-84
2021/10/03 08:15:47;;;;;;;14.70;9.23;;;;;;;;;;143732;570;47018;-85
2021/10/03 08:18:14;;;;;;;13.50;9.23;;;;;;;;;;143735;664;46020;-84
2021/10/03 08:20:42;;;;;;;18.17;10.00;;;;;;;;;;143733;600;46020;-85
2021/10/03 08:23:11;;;;;;;20.30;9.43;;;;;;;;;;143733;714;46010;-83
2021/10/03 08:25:38;;;;;;;15.07;9.63;;;;;;;;;;143734;589;46013;-86
2021/10/03 08:28:06;;;;;;;17.27;8.43;;;;;;;;;;143733;586;47010;-85
2021/10/03 08:30:33;;;;;;;19.90;8.23;;;;;;;;;;143734;585;46018;-84
2021/10/03 08:33:01;;;;;;;9.82;7.20;;;;;;;;;;143733;587;46022;-84
2021/10/03 08:35:32;;;;;;;11.90;8.00;;;;;;;;;;143736;574;46012;-83
2021/10/03 08:38:03;;;;;;;21.23;9.23;;;;;;;;;;143738;578;46022;-85
2021/10/03 08:40:30;;;;;;;17.77;7.93;;;;;;;;;;143734;572;46020;-83
2021/10/03 08:42:59;;;;;;;19.48;4.80;;;;;;;;;;143734;571;46010;-83
2021/10/03 08:45:28;;;;;;;6.93;5.35;;;;;;;;;;143732;576;46018;-85
2021/10/03 08:47:55;;;;;;;10.43;5.97;;;;;;;;;;143732;675;46021;-85
2021/10/03 08:50:24;;;;;;;7.12;4.72;;;;;;;;;;143731;569;47020;-84
2021/10/03 08:52:51;;;;;;;11.38;5.45;;;;;;;;;;143732;575;46022;-83
2021/10/03 08:55:17;;;;;;;10.27;5.87;;;;;;;;;;143732;637;47019;-83
2021/10/03 08:57:45;;;;;;;15.75;6.32;;;;;;;;;;143733;569;47022;-84
2021/10/03 09:00:22;;;;;;;11.77;6.03;;;;;;;;;;143729;573;47018;-84
2021/10/03 09:03:11;;;;;;;10.63;5.85;;;;;;;;;;143731;674;47010;-83
2021/10/03 09:05:47;;;;;;;10.18;5.32;;;;;;;;;;143733;587;47018;-85
2021/10/03 09:08:16;;;;;;;10.27;5.82;;;;;;;;;;143733;570;46010;-83
2021/10/03 09:11:03;;;;;;;9.30;5.55;;;;;;;;;;143734;565;46018;-84
2021/10/03 09:13:53;;;;;;;7.75;4.78;;;;;;;;;;143732;620;46022;-85
2021/10/03 09:16:34;;;;;;;10.00;5.95;;;;;;;;;;143734;625;46039;-83
2021/10/03 09:19:09;;;;;;;14.07;4.55;;;;;;;;;;143734;564;46010;-83
2021/10/03 09:21:41;;;;;;;10.63;4.65;;;;;;;;;;143732;596;47020;-84
2021/10/03 09:24:13;;;;;;;11.60;7.95;;;;;;;;;;143733;573;46011;-84
2021/10/03 09:27:04;;;;;;;8.15;4.87;;;;;;;;;;143734;583;46018;-83
2021/10/03 09:29:36;;;;;;;11.93;6.30;;;;;;;;;;143735;605;46020;-84
2021/10/03 09:32:21;;;;;;;10.43;4.65;;;;;;;;;;143733;583;46012;-85
2021/10/03 09:34:52;;;;;;;13.15;4.75;;;;;;;;;;143731;706;46010;-86
2021/10/03 09:37:33;;;;;;;9.75;3.78;;;;;;;;;;143734;652;46018;-87
2021/10/03 09:40:13;;;;;;;7.72;4.68;;;;;;;;;;143734;587;46011;-86
2021/10/03 09:43:04;;;;;;;10.90;4.22;;;;;;;;;;143731;619;47018;-86
2021/10/03 09:45:34;;;;;;;14.50;5.30;;;;;;;;;;143731;594;46010;-88
2021/10/03 09:48:23;;;;;;;11.70;4.32;;;;;;;;;;143733;612;47012;-87
2021/10/03 09:50:54;;;;;;;9.93;5.03;;;;;;;;;;143736;596;46030;-87
2021/10/03 09:53:24;;;;;;;6.62;5.07;;;;;;;;;;143733;600;46020;-89
2021/10/03 09:55:55;;;;;;;15.35;4.93;;;;;;;;;;143732;596;46010;-87
2021/10/03 09:58:27;;;;;;;8.88;5.35;;;;;;;;;;143734;577;46018;-88
2021/10/03 10:00:54;;;;;;;9.50;5.03;;;;;;;;;;143735;579;46010;-86
2021/10/03 10:03:25;;;;;;;7.93;5.07;;;;;;;;;;143732;591;46048;-85
2021/10/03 10:05:54;;;;;;;9.50;3.67;;;;;;;;;;143730;591;47012;-86
2021/10/03 10:08:25;;;;;;;11.18;4.90;;;;;;;;;;143734;566;46018;-87
2021/10/03 10:11:01;;;;;;;8.98;4.65;;;;;;;;;;143736;589;46020;-86
2021/10/03 10:13:30;;;;;;;9.48;4.45;;;;;;;;;;143734;574;46020;-87
2021/10/03 10:16:33;;;;;;;16.45;5.75;;;;;;;;;;143733;578;46011;-86
2021/10/03 10:19:51;;;;;;;8.77;3.83;;;;;;;;;;143734;581;46018;-86
2021/10/03 10:22:38;;;;;;;10.60;4.35;;;;;;;;;;143735;605;46020;-86
2021/10/03 10:25:16;;;;;;;8.43;5.05;;;;;;;;;;143732;580;47023;-88
2021/10/03 10:27:58;;;;;;;9.45;5.07;;;;;;;;;;143731;646;46012;-85
2021/10/03 10:30:25;;;;;;;7.12;3.83;;;;;;;;;;143731;632;47018;-85
2021/10/03 10:33:04;;;;;;;9.20;4.05;;;;;;;;;;143736;581;46023;-85
2021/10/03 10:35:34;;;;;;;12.95;4.25;;;;;;;;;;143731;646;47018;-85
2021/10/03 10:38:11;;;;;;;7.93;4.87;;;;;;;;;;143733;606;46022;-87
2021/10/03 10:40:38;;;;;;;9.63;4.70;;;;;;;;;;143733;606;46016;-86
2021/10/03 10:43:39;;;;;;;11.50;4.97;;;;;;;;;;143734;564;46010;-85
2021/10/03 10:46:05;;;;;;;8.48;3.97;;;;;;;;;;143733;564;46022;-84
2021/10/03 10:48:32;;;;;;;8.38;4.28;;;;;;;;;;143732;565;46010;-84
2021/10/03 10:51:18;;;;;;;8.48;5.30;;;;;;;;;;143735;572;46018;-87
2021/10/03 10:53:48;;;;;;;8.63;4.22;;;;;;;;;;143736;655;46010;-85
2021/10/03 10:56:42;;;;;;;5.80;4.20;;;;;;;;;;143731;601;46911;-85
2021/10/03 10:59:11;;;;;;;12.63;4.43;;;;;;;;;;143732;574;46010;-85
2021/10/03 11:01:42;;;;;;;9.10;4.30;;;;;;;;;;143734;616;46019;-84
2021/10/03 11:04:23;;;;;;;7.32;4.10;;;;;;;;;;143735;576;46020;-84
2021/10/03 11:06:55;;;;;;;7.47;3.80;;;;;;;;;;143730;637;47020;-85
2021/10/03 11:09:25;;;;;;;13.87;4.43;;;;;;;;;;143731;633;46011;-85
2021/10/03 11:12:05;;;;;;;6.93;3.50;;;;;;;;;;143732;585;47018;-84
2021/10/03 11:14:41;;;;;;;9.50;3.80;;;;;;;;;;143733;573;47022;-84
2021/10/03 11:17:09;;;;;;;6.62;4.20;;;;;;;;;;143731;616;47021;-85
2021/10/03 11:19:54;;;;;;;7.78;4.80;;;;;;;;;;143732;582;46012;-84
2021/10/03 11:22:28;;;;;;;8.00;3.87;;;;;;;;;;143735;600;46018;-85
2021/10/03 11:24:57;;;;;;;6.78;3.83;;;;;;;;;;143735;569;46010;-86
2021/10/03 11:27:32;;;;;;;6.05;3.15;;;;;;;;;;143729;643;47020;-84
2021/10/03 11:30:01;;;;;;;9.07;3.87;;;;;;;;;;143734;588;46013;-85
2021/10/03 11:32:29;;;;;;;8.38;3.80;;;;;;;;;;143733;659;47019;-85
2021/10/03 11:35:17;;;;;;;9.27;3.53;;;;;;;;;;143735;613;46020;-85
2021/10/03 11:37:51;;;;;;;8.32;3.50;;;;;;;;;;143732;590;46012;-85
2021/10/03 11:40:27;;;;;;;5.62;3.35;;;;;;;;;;143732;587;46022;-86
2021/10/03 11:42:59;;;;;;;5.50;3.83;;;;;;;;;;143734;580;46018;-85
2021/10/03 11:45:38;;;;;;;8.90;3.70;;;;;;;;;;143737;616;47023;-84
2021/10/03 11:48:08;;;;;;;5.32;3.28;;;;;;;;;;143732;642;46021;-84
2021/10/03 11:50:50;;;;;;;10.55;3.72;;;;;;;;;;143733;605;46010;-82
2021/10/03 11:53:47;;;;;;;11.45;4.28;;;;;;;;;;143737;619;46018;-80
2021/10/03 11:56:17;;;;;;;5.43;3.72;;;;;;;;;;143738;593;46012;-82
2021/10/03 11:58:52;;;;;;;8.00;3.42;;;;;;;;;;143735;577;46020;-80
2021/10/03 12:01:43;;;;;;;8.77;4.57;;;;;;;;;;143737;580;45921;-83
2021/10/03 12:04:25;;;;;;;9.60;3.95;;;;;;;;;;143736;594;46012;-85
2021/10/03 12:06:53;;;;;;;7.10;3.28;;;;;;;;;;143737;655;46022;-81
2021/10/03 12:09:27;;;;;;;6.90;4.05;;;;;;;;;;143737;564;46021;-87
2021/10/03 12:11:55;;;;;;;7.70;3.03;;;;;;;;;;143735;585;46010;-86
2021/10/03 12:14:22;;;;;;;7.28;3.97;;;;;;;;;;143736;726;46018;-85
2021/10/03 12:16:57;;;;;;;5.85;3.30;;;;;;;;;;143734;581;46010;-85
2021/10/03 12:19:28;;;;;;;4.95;3.62;;;;;;;;;;143732;591;47020;-85
2021/10/03 12:22:04;;;;;;;6.43;3.30;;;;;;;;;;143734;655;46022;-84
2021/10/03 12:24:31;;;;;;;5.68;3.83;;;;;;;;;;143735;786;46018;-85
2021/10/03 12:27:04;;;;;;;9.27;3.60;;;;;;;;;;143736;693;46010;-85
2021/10/03 12:32:34;;;;;;;12.40;3.80;;;;;;;;;;143735;792;46010;-84
2021/10/03 12:35:07;;;;;;;6.12;3.03;;;;;;;;;;143733;564;46018;-84
2021/10/03 12:37:33;;;;;;;7.37;3.20;;;;;;;;;;143735;578;46011;-86
2021/10/03 12:40:19;;;;;;;8.30;3.47;;;;;;;;;;143732;632;46021;-84
2021/10/03 12:42:56;;;;;;;7.00;3.35;;;;;;;;;;143732;600;46010;-84
2021/10/03 12:45:30;;;;;;;7.12;4.00;;;;;;;;;;143732;680;47019;-85
2021/10/03 12:48:01;;;;;;;8.40;3.67;;;;;;;;;;143735;594;46012;-84
2021/10/03 12:50:31;;;;;;;8.75;3.05;;;;;;;;;;143732;701;47020;-84
2021/10/03 12:53:00;;;;;;;4.10;3.10;;;;;;;;;;143732;624;46011;-84
2021/10/03 12:55:28;;;;;;;10.80;3.15;;;;;;;;;;143734;676;47018;-83
2021/10/03 12:57:56;;;;;;;10.40;3.60;;;;;;;;;;143734;673;47022;-83
2021/10/03 13:00:23;;;;;;;5.53;3.28;;;;;;;;;;143732;569;47020;-83
2021/10/03 13:02:53;;;;;;;7.50;3.30;;;;;;;;;;143731;602;46012;-86
2021/10/03 13:05:19;;;;;;;7.57;3.40;;;;;;;;;;143733;662;47018;-86
2021/10/03 13:07:48;;;;;;;3.92;2.70;;;;;;;;;;143738;569;46010;-87
2021/10/03 13:10:15;;;;;;;7.07;3.50;;;;;;;;;;143733;600;46020;-84
2021/10/03 13:12:44;;;;;;;4.47;3.05;;;;;;;;;;143733;659;47022;-86
2021/10/03 13:15:11;;;;;;;4.28;2.62;;;;;;;;;;143734;564;47019;-85
2021/10/03 13:17:40;;;;;;;7.78;3.33;;;;;;;;;;143733;612;46022;-86
2021/10/03 13:20:11;;;;;;;5.37;3.25;;;;;;;;;;143733;563;47018;-87
2021/10/03 13:22:39;;;;;;;5.70;2.97;;;;;;;;;;143731;569;46918;-86
2021/10/03 13:25:10;;;;;;;4.95;3.25;;;;;;;;;;143735;565;46018;-85
2021/10/03 13:27:39;;;;;;;4.60;2.60;;;;;;;;;;143735;639;46020;-84
2021/10/03 13:30:08;;;;;;;4.47;2.45;;;;;;;;;;143732;577;47020;-84
2021/10/03 13:32:35;;;;;;;6.28;3.10;;;;;;;;;;143733;609;46010;-85
2021/10/03 13:35:03;;;;;;;11.52;3.15;;;;;;;;;;143734;603;47018;-83
2021/10/03 13:37:29;;;;;;;8.20;3.20;;;;;;;;;;143738;564;46010;-85
2021/10/03 13:39:57;;;;;;;6.18;2.87;;;;;;;;;;143731;619;47021;-84
2021/10/03 13:42:25;;;;;;;5.90;3.08;;;;;;;;;;143734;590;45918;-85
2021/10/03 13:44:53;;;;;;;7.22;3.10;;;;;;;;;;143736;635;46019;-84
2021/10/03 13:47:21;;;;;;;5.80;3.05;;;;;;;;;;143736;614;46010;-84
2021/10/03 13:49:49;;;;;;;4.72;2.87;;;;;;;;;;143734;593;46020;-85
2021/10/03 13:52:16;;;;;;;5.72;2.92;;;;;;;;;;143734;668;46918;-85
2021/10/03 13:54:44;;;;;;;6.85;3.03;;;;;;;;;;143736;629;46018;-85
2021/10/03 13:57:11;;;;;;;5.40;3.00;;;;;;;;;;143735;616;46012;-86
2021/10/03 13:59:38;;;;;;;6.05;2.97;;;;;;;;;;143733;671;46020;-86
2021/10/03 14:02:05;;;;;;;5.37;2.92;;;;;;;;;;143737;721;45921;-84
2021/10/03 14:04:33;;;;;;;7.47;3.17;;;;;;;;;;143735;611;47020;-85
2021/10/03 14:06:59;;;;;;;6.97;3.17;;;;;;;;;;143735;574;46012;-85
2021/10/03 14:09:28;;;;;;;8.27;3.33;;;;;;;;;;143736;614;46018;-84
2021/10/03 14:11:56;;;;;;;4.90;3.05;;;;;;;;;;143734;708;46010;-84
2021/10/03 14:14:27;;;;;;;6.93;3.22;;;;;;;;;;143736;677;47018;-84
2021/10/03 14:16:53;;;;;;;3.97;2.58;;;;;;;;;;143738;613;46023;-85
2021/10/03 14:19:20;;;;;;;7.30;3.25;;;;;;;;;;143733;614;47020;-85
2021/10/03 14:21:47;;;;;;;4.95;2.92;;;;;;;;;;143734;607;46010;-86
2021/10/03 14:24:15;;;;;;;7.82;3.50;;;;;;;;;;143733;655;47019;-85
2021/10/03 14:26:43;;;;;;;4.78;2.83;;;;;;;;;;143737;576;46022;-86
2021/10/03 14:29:13;;;;;;;10.43;3.12;;;;;;;;;;143735;650;46020;-83
2021/10/03 14:31:40;;;;;;;7.30;2.97;;;;;;;;;;143734;659;46919;-84
2021/10/03 14:34:10;;;;;;;6.60;3.37;;;;;;;;;;143738;611;47018;-85
2021/10/03 14:36:47;;;;;;;4.85;3.12;;;;;;;;;;143738;630;46010;-85
2021/10/03 14:39:14;;;;;;;5.55;2.90;;;;;;;;;;143734;629;47018;-85
2021/10/03 14:41:42;;;;;;;6.85;3.17;;;;;;;;;;143735;591;46010;-84
2021/10/03 14:44:10;;;;;;;7.62;3.37;;;;;;;;;;143735;621;46019;-84
2021/10/03 14:46:39;;;;;;;4.93;3.40;;;;;;;;;;143736;587;46020;-85
2021/10/03 14:49:08;;;;;;;7.72;3.00;;;;;;;;;;143734;669;46020;-83
2021/10/03 14:51:35;;;;;;;7.30;2.65;;;;;;;;;;143733;588;46918;-84
2021/10/03 14:54:03;;;;;;;8.50;3.75;;;;;;;;;;143736;585;46018;-85